createdAt,value
2023-01-05T00:01:11.735Z,98564.84
2023-01-05T00:03:39.571Z,98569.69
2023-01-05T00:06:17.962Z,98566.19
2023-01-05T00:08:46.628Z,98553.97
2023-01-05T00:11:38.430Z,98554.00
2023-01-05T00:14:25.517Z,98555.84
2023-01-05T00:17:11.296Z,98547.47
2023-01-05T00:19:57.334Z,98535.31
2023-01-05T00:22:32.784Z,98543.16
2023-01-05T00:25:12.932Z,98537.78
2023-01-05T00:27:42.211Z,98530.13
2023-01-05T00:30:15.777Z,98537.28
2023-01-05T00:32:43.546Z,98542.47
2023-01-05T00:35:12.447Z,98539.78
2023-01-05T00:37:40.298Z,98537.09
2023-01-05T00:40:11.432Z,98538.97
2023-01-05T00:42:39.043Z,98539.78
2023-01-05T00:45:09.325Z,98539.28
2023-01-05T00:47:36.573Z,98536.44
2023-01-05T00:50:05.572Z,98530.09
2023-01-05T00:52:32.859Z,98528.75
2023-01-05T00:55:00.415Z,98539.13
2023-01-05T00:57:28.260Z,98529.41
2023-01-05T00:59:56.737Z,98537.44
2023-01-05T01:02:24.286Z,98545.78
2023-01-05T01:04:51.936Z,98548.66
2023-01-05T01:07:19.216Z,98530.22
2023-01-05T01:09:46.748Z,98543.78
2023-01-05T01:12:14.180Z,98534.72
2023-01-05T01:14:42.226Z,98550.81
2023-01-05T01:17:09.498Z,98553.13
2023-01-05T01:19:37.718Z,98554.31
2023-01-05T01:22:04.981Z,98546.63
2023-01-05T01:24:33.913Z,98557.50
2023-01-05T01:27:01.179Z,98557.19
2023-01-05T01:29:29.730Z,98540.44
2023-01-05T01:31:57.132Z,98533.72
2023-01-05T01:34:24.783Z,98539.78
2023-01-05T01:36:55.376Z,98533.91
2023-01-05T01:39:25.462Z,98526.56
2023-01-05T01:41:58.208Z,98544.97
2023-01-05T01:44:47.808Z,98540.78
2023-01-05T01:47:38.279Z,98543.44
2023-01-05T01:50:20.363Z,98532.25
2023-01-05T01:52:50.878Z,98528.06
2023-01-05T01:55:19.489Z,98531.09
2023-01-05T01:57:48.692Z,98523.09
2023-01-05T02:00:18.692Z,98523.41
2023-01-05T02:02:48.868Z,98520.91
2023-01-05T02:05:24.804Z,98517.56
2023-01-05T02:07:52.089Z,98506.34
2023-01-05T02:10:42.610Z,98518.50
2023-01-05T02:13:50.408Z,98520.53
2023-01-05T02:16:21.087Z,98515.88
2023-01-05T02:19:13.410Z,98524.06
2023-01-05T02:21:42.841Z,98507.34
2023-01-05T02:24:30.255Z,98514.06
2023-01-05T02:27:10.728Z,98502.97
2023-01-05T02:30:15.080Z,98510.13
2023-01-05T02:32:56.140Z,98505.09
2023-01-05T02:35:27.870Z,98490.53
2023-01-05T02:38:12.247Z,98497.63
2023-01-05T02:40:44.259Z,98488.78
2023-01-05T02:43:13.684Z,98495.94
2023-01-05T02:45:41.315Z,98495.44
2023-01-05T02:48:09.791Z,98496.97
2023-01-05T02:50:45.897Z,98494.13
2023-01-05T02:53:24.307Z,98492.63
2023-01-05T02:56:00.773Z,98485.28
2023-01-05T02:59:04.855Z,98490.09
2023-01-05T03:01:46.629Z,98485.06
2023-01-05T03:04:23.199Z,98483.91
2023-01-05T03:07:05.431Z,98476.38
2023-01-05T03:09:38.285Z,98484.25
2023-01-05T03:12:44.119Z,98482.44
2023-01-05T03:15:26.790Z,98481.78
2023-01-05T03:18:00.655Z,98486.13
2023-01-05T03:20:33.165Z,98486.59
2023-01-05T03:23:22.831Z,98481.94
2023-01-05T03:26:11.616Z,98474.56
2023-01-05T03:28:57.424Z,98490.78
2023-01-05T03:32:07.144Z,98489.63
2023-01-05T03:35:23.841Z,98495.16
2023-01-05T03:38:00.558Z,98492.28
2023-01-05T03:40:32.190Z,98487.63
2023-01-05T03:43:00.824Z,98489.97
2023-01-05T03:45:53.938Z,98487.28
2023-01-05T03:48:27.491Z,98485.25
2023-01-05T03:50:55.560Z,98475.91
2023-01-05T03:53:24.920Z,98486.97
2023-01-05T03:55:52.224Z,98476.59
2023-01-05T03:58:20.034Z,98478.06
2023-01-05T04:00:49.590Z,98471.28
2023-01-05T04:03:24.011Z,98480.28
2023-01-05T04:05:54.664Z,98479.28
2023-01-05T04:08:24.416Z,98478.25
2023-01-05T04:10:53.643Z,98481.28
2023-01-05T04:13:21.781Z,98473.91
2023-01-05T04:15:50.138Z,98480.59
2023-01-05T04:18:17.689Z,98473.47
2023-01-05T04:20:45.074Z,98487.47
2023-01-05T04:23:14.380Z,98487.00
2023-01-05T04:25:42.661Z,98498.16
2023-01-05T04:28:18.862Z,98487.97
2023-01-05T04:30:53.096Z,98491.00
2023-01-05T04:33:22.330Z,98488.81
2023-01-05T04:35:49.736Z,98494.66
2023-01-05T04:38:18.919Z,98485.63
2023-01-05T04:40:50.801Z,98492.31
2023-01-05T04:43:20.171Z,98493.63
2023-01-05T04:45:49.407Z,98496.31
2023-01-05T04:48:17.736Z,98499.16
2023-01-05T04:50:45.361Z,98490.78
2023-01-05T04:53:12.966Z,98493.97
2023-01-05T04:55:45.426Z,98505.69
2023-01-05T04:58:13.050Z,98502.19
2023-01-05T05:00:41.672Z,98502.22
2023-01-05T05:03:09.392Z,98510.22
2023-01-05T05:05:37.055Z,98506.88
2023-01-05T05:08:04.959Z,98508.56
2023-01-05T05:10:34.637Z,98521.94
2023-01-05T05:13:02.401Z,98511.56
2023-01-05T05:15:31.036Z,98515.41
2023-01-05T05:18:02.833Z,98526.09
2023-01-05T05:20:33.634Z,98519.88
2023-01-05T05:23:01.327Z,98512.69
2023-01-05T05:25:32.764Z,98518.88
2023-01-05T05:28:00.364Z,98516.06
2023-01-05T05:30:27.608Z,98522.00
2023-01-05T05:32:55.178Z,98518.88
2023-01-05T05:35:22.540Z,98524.66
2023-01-05T05:37:56.022Z,98525.53
2023-01-05T05:40:24.375Z,98526.03
2023-01-05T05:42:52.085Z,98517.00
2023-01-05T05:45:19.329Z,98527.69
2023-01-05T05:47:46.891Z,98529.69
2023-01-05T05:50:14.167Z,98517.00
2023-01-05T05:52:42.039Z,98522.66
2023-01-05T05:55:09.587Z,98536.38
2023-01-05T05:57:37.190Z,98523.38
2023-01-05T06:00:05.535Z,98528.72
2023-01-05T06:02:40.273Z,98515.88
2023-01-05T06:05:08.067Z,98512.03
2023-01-05T06:07:35.586Z,98518.19
2023-01-05T06:10:02.832Z,98520.69
2023-01-05T06:12:30.585Z,98520.41
2023-01-05T06:14:57.804Z,98528.19
2023-01-05T06:17:25.378Z,98534.53
2023-01-05T06:19:52.748Z,98536.34
2023-01-05T06:22:20.362Z,98542.38
2023-01-05T06:24:47.606Z,98532.53
2023-01-05T06:27:15.131Z,98535.31
2023-01-05T06:29:42.366Z,98551.69
2023-01-05T06:32:09.960Z,98550.19
2023-01-05T06:34:37.717Z,98546.50
2023-01-05T06:37:06.533Z,98553.38
2023-01-05T06:39:33.792Z,98560.06
2023-01-05T06:42:01.441Z,98555.75
2023-01-05T06:44:28.828Z,98567.44
2023-01-05T06:46:56.376Z,98567.09
2023-01-05T06:49:23.663Z,98571.56
2023-01-05T06:51:51.189Z,98565.59
2023-01-05T06:54:18.645Z,98568.22
2023-01-05T06:56:46.302Z,98578.03
2023-01-05T06:59:13.674Z,98557.03
2023-01-05T07:01:41.321Z,98567.72
2023-01-05T07:04:08.939Z,98570.34
2023-01-05T07:06:36.640Z,98569.75
2023-01-05T07:09:04.269Z,98572.44
2023-01-05T07:11:32.093Z,98580.03
2023-01-05T07:13:59.362Z,98580.72
2023-01-05T07:16:27.385Z,98587.78
2023-01-05T07:18:54.653Z,98588.91
2023-01-05T07:21:22.222Z,98596.94
2023-01-05T07:23:49.438Z,98592.22
2023-01-05T07:26:17.011Z,98590.97
2023-01-05T07:28:44.392Z,98587.63
2023-01-05T07:31:12.080Z,98582.56
2023-01-05T07:33:40.444Z,98601.31
2023-01-05T07:36:08.847Z,98602.81
2023-01-05T07:38:36.227Z,98600.16
2023-01-05T07:41:03.857Z,98609.03
2023-01-05T07:43:31.162Z,98605.63
2023-01-05T07:46:02.703Z,98616.25
2023-01-05T07:48:30.201Z,98600.16
2023-01-05T07:51:02.553Z,98606.91
2023-01-05T07:53:31.199Z,98614.53
2023-01-05T07:56:00.592Z,98610.50
2023-01-05T07:58:28.961Z,98621.97
2023-01-05T08:00:57.020Z,98623.13
2023-01-05T08:03:24.443Z,98631.81
2023-01-05T08:05:52.055Z,98624.00
2023-01-05T08:08:24.389Z,98623.16
2023-01-05T08:10:52.338Z,98630.56
2023-01-05T08:13:38.006Z,98634.31
2023-01-05T08:16:06.159Z,98638.41
2023-01-05T08:18:33.484Z,98633.06
2023-01-05T08:21:06.059Z,98631.28
2023-01-05T08:23:33.534Z,98643.22
2023-01-05T08:26:10.470Z,98644.19
2023-01-05T08:28:38.975Z,98634.06
2023-01-05T08:31:21.987Z,98637.00
2023-01-05T08:33:49.294Z,98633.75
2023-01-05T08:36:20.513Z,98628.25
2023-01-05T08:38:48.895Z,98641.03
2023-01-05T08:41:30.177Z,98646.31
2023-01-05T08:44:02.338Z,98628.31
2023-01-05T08:46:33.183Z,98640.63
2023-01-05T08:49:02.151Z,98645.69
2023-01-05T08:51:30.533Z,98641.56
2023-01-05T08:53:58.272Z,98644.44
2023-01-05T08:56:28.721Z,98648.84
2023-01-05T08:58:59.292Z,98661.22
2023-01-05T09:01:27.422Z,98662.94
2023-01-05T09:03:54.759Z,98666.25
2023-01-05T09:06:22.585Z,98661.69
2023-01-05T09:08:49.842Z,98663.09
2023-01-05T09:11:28.284Z,98652.22
2023-01-05T09:13:59.870Z,98672.75
2023-01-05T09:19:17.008Z,98674.41
2023-01-05T09:21:44.735Z,98668.00
2023-01-05T09:24:13.065Z,98675.03
2023-01-05T09:26:42.043Z,98672.06
2023-01-05T09:29:10.184Z,98665.72
2023-01-05T09:31:38.256Z,98671.13
2023-01-05T09:34:05.713Z,98668.00
2023-01-05T09:36:33.448Z,98671.53
2023-01-05T09:39:00.904Z,98673.94
2023-01-05T09:41:38.954Z,98663.72
2023-01-05T09:44:23.280Z,98672.53
2023-01-05T09:46:51.879Z,98676.66
2023-01-05T09:49:23.094Z,98677.56
2023-01-05T09:51:57.841Z,98675.00
2023-01-05T09:54:29.735Z,98676.91
2023-01-05T09:57:09.066Z,98670.91
2023-01-05T09:59:40.996Z,98683.50
2023-01-05T10:02:20.880Z,98672.66
2023-01-05T10:04:49.112Z,98676.91
2023-01-05T10:07:34.065Z,98675.22
2023-01-05T10:10:13.074Z,98678.22
2023-01-05T10:13:06.378Z,98654.84
2023-01-05T10:15:38.659Z,98683.00
2023-01-05T10:18:13.362Z,98671.56
2023-01-05T10:20:40.527Z,98677.28
2023-01-05T10:23:32.810Z,98676.09
2023-01-05T10:26:08.915Z,98689.22
2023-01-05T10:28:42.356Z,98678.97
2023-01-05T10:31:24.214Z,98670.13
2023-01-05T10:34:00.260Z,98679.75
2023-01-05T10:37:08.072Z,98687.66
2023-01-05T10:40:05.224Z,98686.69
2023-01-05T10:43:06.614Z,98665.72
2023-01-05T10:45:46.048Z,98668.66
2023-01-05T10:48:30.868Z,98653.75
2023-01-05T10:50:58.869Z,98672.22
2023-01-05T10:53:28.770Z,98665.31
2023-01-05T10:56:06.045Z,98667.19
2023-01-05T10:58:35.972Z,98673.88
2023-01-05T11:01:05.458Z,98668.50
2023-01-05T11:04:23.791Z,98694.19
2023-01-05T11:06:32.102Z,98694.94
2023-01-05T11:09:26.777Z,98687.28
2023-01-05T11:11:55.259Z,98679.59
2023-01-05T11:14:23.362Z,98685.47
2023-01-05T11:16:54.829Z,98694.75
2023-01-05T11:19:29.652Z,98696.28
2023-01-05T11:22:01.948Z,98701.00
2023-01-05T11:24:35.624Z,98704.97
2023-01-05T11:27:22.907Z,98701.00
2023-01-05T11:30:20.574Z,98708.72
2023-01-05T11:32:48.710Z,98699.22
2023-01-05T11:35:28.518Z,98718.47
2023-01-05T11:37:57.412Z,98733.25
2023-01-05T11:40:29.859Z,98726.38
2023-01-05T11:42:59.372Z,98727.69
2023-01-05T11:45:40.266Z,98733.78
2023-01-05T11:48:08.990Z,98735.78
2023-01-05T11:50:47.692Z,98751.97
2023-01-05T11:53:35.429Z,98745.97
2023-01-05T11:56:21.855Z,98753.00
2023-01-05T11:58:57.974Z,98749.31
2023-01-05T12:01:55.012Z,98758.88
2023-01-05T12:04:52.742Z,98764.47
2023-01-05T12:07:37.482Z,98766.63
2023-01-05T12:10:23.611Z,98765.97
2023-01-05T12:13:12.578Z,98750.25
2023-01-05T12:16:02.089Z,98756.09
2023-01-05T12:18:37.208Z,98777.28
2023-01-05T12:21:16.388Z,98788.00
2023-01-05T12:24:02.188Z,98788.50
2023-01-05T12:26:31.918Z,98796.47
2023-01-05T12:35:12.366Z,98780.69
2023-01-05T12:37:58.436Z,98800.94
2023-01-05T12:40:49.969Z,98795.91
2023-01-05T12:43:38.720Z,98800.19
2023-01-05T12:46:08.904Z,98806.75
2023-01-05T12:48:53.065Z,98813.25
2023-01-05T12:51:32.677Z,98817.91
2023-01-05T12:54:10.652Z,98837.38
2023-01-05T12:57:05.458Z,98837.25
2023-01-05T12:59:45.051Z,98851.72
2023-01-05T13:02:16.068Z,98841.28
2023-01-05T13:04:54.300Z,98863.53
2023-01-05T13:07:52.569Z,98859.69
2023-01-05T13:10:26.777Z,98867.38
2023-01-05T13:13:02.267Z,98890.41
2023-01-05T13:15:40.358Z,98896.38
2023-01-05T13:18:15.612Z,98898.47
2023-01-05T13:20:54.529Z,98909.19
2023-01-05T13:23:27.590Z,98917.44
2023-01-05T13:26:07.377Z,98936.63
2023-01-05T13:28:35.148Z,98951.59
2023-01-05T13:31:40.581Z,98968.09
2023-01-05T13:34:19.822Z,98997.22
2023-01-05T13:37:29.875Z,99013.97
2023-01-05T13:40:12.234Z,99021.09
2023-01-05T13:42:45.783Z,99030.94
2023-01-05T13:45:15.924Z,99042.88
2023-01-05T13:48:44.641Z,99042.72
2023-01-05T13:51:33.747Z,99059.22
2023-01-05T13:54:08.462Z,99070.00
2023-01-05T13:56:40.759Z,99087.69
2023-01-05T13:59:34.790Z,99097.13
2023-01-05T14:02:05.435Z,99105.50
2023-01-05T14:04:35.525Z,99127.13
2023-01-05T14:07:14.172Z,99132.94
2023-01-05T14:09:58.400Z,99147.63
2023-01-05T14:12:48.219Z,99169.81
2023-01-05T14:15:34.291Z,99177.88
2023-01-05T14:18:03.164Z,99184.34
2023-01-05T14:20:30.809Z,99186.16
2023-01-05T14:22:58.213Z,99214.09
2023-01-05T14:25:48.569Z,99211.25
2023-01-05T14:28:20.213Z,99221.06
2023-01-05T14:30:49.247Z,99219.69
2023-01-05T14:33:18.716Z,99214.03
2023-01-05T14:35:47.292Z,99242.28
2023-01-05T14:38:14.502Z,99255.13
2023-01-05T14:40:46.238Z,99255.28
2023-01-05T14:43:31.256Z,99274.13
2023-01-05T14:46:11.968Z,99294.19
2023-01-05T14:48:46.116Z,99292.88
2023-01-05T14:51:26.405Z,99300.50
2023-01-05T14:53:56.898Z,99295.19
2023-01-05T14:56:29.749Z,99328.66
2023-01-05T14:59:25.578Z,99333.22
2023-01-05T15:02:00.553Z,99338.81
2023-01-05T15:04:38.997Z,99345.06
2023-01-05T15:07:37.182Z,99376.72
2023-01-05T15:10:55.138Z,99374.69
2023-01-05T15:13:25.640Z,99388.22
2023-01-05T15:16:19.855Z,99394.84
2023-01-05T15:18:47.346Z,99397.97
2023-01-05T15:21:33.513Z,99411.53
2023-01-05T15:24:45.792Z,99420.22
2023-01-05T15:27:13.048Z,99430.34
2023-01-05T15:30:03.902Z,99442.56
2023-01-05T15:32:36.406Z,99446.78
2023-01-05T15:35:26.130Z,99459.09
2023-01-05T15:37:53.414Z,99465.19
2023-01-05T15:40:24.113Z,99477.16
2023-01-05T15:42:54.750Z,99499.75
2023-01-05T15:45:28.068Z,99502.75
2023-01-05T15:47:58.046Z,99503.00
2023-01-05T15:50:38.886Z,99523.00
2023-01-05T15:53:06.831Z,99523.78
2023-01-05T15:55:34.463Z,99538.41
2023-01-05T15:58:04.679Z,99547.47
2023-01-05T16:00:35.156Z,99554.34
2023-01-05T16:03:22.423Z,99557.59
2023-01-05T16:06:00.531Z,99582.38
2023-01-05T16:08:27.967Z,99579.56
2023-01-05T16:11:00.832Z,99591.38
2023-01-05T16:13:45.866Z,99601.66
2023-01-05T16:16:50.550Z,99626.69
2023-01-05T16:19:29.105Z,99626.69
2023-01-05T16:22:07.627Z,99661.03
2023-01-05T16:25:00.133Z,99652.31
2023-01-05T16:27:29.003Z,99659.50
2023-01-05T16:30:31.460Z,99676.06
2023-01-05T16:33:27.374Z,99669.59
2023-01-05T16:36:22.185Z,99671.94
2023-01-05T16:38:49.851Z,99678.63
2023-01-05T16:41:25.620Z,99693.50
2023-01-05T16:43:59.051Z,99710.56
2023-01-05T16:46:36.100Z,99711.97
2023-01-05T16:49:33.113Z,99715.34
2023-01-05T16:52:01.613Z,99717.50
2023-01-05T16:54:40.779Z,99729.59
2023-01-05T16:57:31.661Z,99744.66
2023-01-05T16:59:59.481Z,99750.91
2023-01-05T17:02:47.928Z,99748.69
2023-01-05T17:05:20.696Z,99744.13
2023-01-05T17:07:58.396Z,99770.56
2023-01-05T17:10:27.512Z,99758.75
2023-01-05T17:13:01.535Z,99785.41
2023-01-05T17:15:32.986Z,99780.19
2023-01-05T17:18:01.376Z,99785.41
2023-01-05T17:20:34.757Z,99793.91
2023-01-05T17:23:02.079Z,99808.13
2023-01-05T17:25:32.844Z,99810.38
2023-01-05T17:28:00.275Z,99811.09
2023-01-05T17:30:27.893Z,99819.78
2023-01-05T17:32:55.316Z,99821.47
2023-01-05T17:35:22.872Z,99823.16
2023-01-05T17:37:51.445Z,99834.63
2023-01-05T17:40:21.017Z,99851.63
2023-01-05T17:42:48.682Z,99840.28
2023-01-05T17:45:22.186Z,99863.19
2023-01-05T17:47:51.042Z,99861.91
2023-01-05T17:50:21.807Z,99853.56
2023-01-05T17:52:49.452Z,99867.88
2023-01-05T17:55:17.374Z,99876.78
2023-01-05T17:57:44.628Z,99865.09
2023-01-05T18:00:17.420Z,99869.44
2023-01-05T18:02:46.992Z,99891.09
2023-01-05T18:05:14.802Z,99893.22
2023-01-05T18:07:43.047Z,99918.66
2023-01-05T18:10:15.732Z,99935.91
2023-01-05T18:12:43.443Z,99949.88
2023-01-05T18:15:12.502Z,99948.78
2023-01-05T18:17:40.397Z,99966.56
2023-01-05T18:20:09.256Z,99956.03
2023-01-05T18:22:39.016Z,99973.91
2023-01-05T18:27:35.726Z,99994.34
2023-01-05T18:30:05.395Z,99970.84
2023-01-05T18:32:32.961Z,100006.13
2023-01-05T18:35:04.232Z,100009.31
2023-01-05T18:37:35.279Z,99994.56
2023-01-05T18:40:03.284Z,100007.25
2023-01-05T18:42:30.651Z,100010.66
2023-01-05T18:44:59.823Z,100011.88
2023-01-05T18:47:28.954Z,100010.84
2023-01-05T18:49:58.204Z,100018.97
2023-01-05T18:52:25.868Z,100030.06
2023-01-05T18:54:54.670Z,100043.03
2023-01-05T18:57:22.265Z,100039.28
2023-01-05T18:59:51.778Z,100059.34
2023-01-05T19:02:19.136Z,100070.97
2023-01-05T19:04:46.841Z,100064.56
2023-01-05T19:07:14.219Z,100074.13
2023-01-05T19:09:41.870Z,100076.59
2023-01-05T19:12:09.186Z,100087.19
2023-01-05T19:14:37.330Z,100090.34
2023-01-05T19:17:04.886Z,100089.09
2023-01-05T19:19:32.460Z,100110.22
2023-01-05T19:21:59.833Z,100116.94
2023-01-05T19:24:27.591Z,100116.06
2023-01-05T19:26:54.971Z,100118.94
2023-01-05T19:29:24.352Z,100129.34
2023-01-05T19:31:51.643Z,100138.53
2023-01-05T19:34:19.817Z,100159.75
2023-01-05T19:36:47.627Z,100144.75
2023-01-05T19:39:20.993Z,100143.44
2023-01-05T19:41:51.368Z,100146.84
2023-01-05T19:44:21.336Z,100161.50
2023-01-05T19:46:51.944Z,100167.41
2023-01-05T19:49:24.136Z,100187.53
2023-01-05T19:51:52.046Z,100182.44
2023-01-05T19:54:20.777Z,100193.59
2023-01-05T19:56:48.280Z,100210.28
2023-01-05T19:59:21.943Z,100216.47
2023-01-05T20:01:49.435Z,100205.88
2023-01-05T20:04:17.319Z,100222.47
2023-01-05T20:06:45.698Z,100208.09
2023-01-05T20:09:16.774Z,100223.06
2023-01-05T20:11:47.798Z,100225.72
2023-01-05T20:14:17.493Z,100236.84
2023-01-05T20:16:51.709Z,100229.88
2023-01-05T20:19:20.615Z,100238.22
2023-01-05T20:21:49.638Z,100246.56
2023-01-05T20:24:23.590Z,100237.97
2023-01-05T20:26:58.225Z,100237.22
2023-01-05T20:29:26.197Z,100263.91
2023-01-05T20:32:04.037Z,100279.00
2023-01-05T20:34:35.616Z,100269.47
2023-01-05T20:37:05.327Z,100279.22
2023-01-05T20:39:33.664Z,100285.03
2023-01-05T20:42:04.943Z,100274.94
2023-01-05T20:44:35.641Z,100285.63
2023-01-05T20:47:03.809Z,100280.69
2023-01-05T20:49:31.625Z,100287.28
2023-01-05T20:51:58.931Z,100288.81
2023-01-05T20:54:26.814Z,100311.72
2023-01-05T20:56:54.314Z,100306.75
2023-01-05T20:59:27.236Z,100321.97
2023-01-05T21:01:55.327Z,100317.44
2023-01-05T21:04:25.211Z,100330.00
2023-01-05T21:06:59.439Z,100328.22
2023-01-05T21:09:29.864Z,100336.84
2023-01-05T21:11:58.233Z,100356.50
2023-01-05T21:14:25.807Z,100351.72
2023-01-05T21:16:54.338Z,100351.19
2023-01-05T21:19:23.824Z,100354.22
2023-01-05T21:21:54.107Z,100358.34
2023-01-05T21:24:22.878Z,100368.72
2023-01-05T21:26:50.580Z,100371.91
2023-01-05T21:29:20.369Z,100378.47
2023-01-05T21:31:48.643Z,100388.47
2023-01-05T21:34:16.247Z,100394.28
2023-01-05T21:36:49.066Z,100400.53
2023-01-05T21:39:20.613Z,100406.94
2023-01-05T21:42:07.960Z,100397.16
2023-01-05T21:44:36.245Z,100402.06
2023-01-05T21:47:06.477Z,100429.78
2023-01-05T21:49:35.374Z,100420.88
2023-01-05T21:52:21.183Z,100426.44
2023-01-05T21:55:07.146Z,100443.91
2023-01-05T21:57:34.744Z,100440.69
2023-01-05T22:00:02.476Z,100447.47
2023-01-05T22:02:32.630Z,100459.06
2023-01-05T22:05:00.235Z,100459.75
2023-01-05T22:07:27.763Z,100448.56
2023-01-05T22:09:55.384Z,100444.03
2023-01-05T22:12:22.661Z,100460.78
2023-01-05T22:14:50.533Z,100461.31
2023-01-05T22:17:17.775Z,100467.81
2023-01-05T22:19:45.328Z,100475.41
2023-01-05T22:22:12.760Z,100471.50
2023-01-05T22:24:40.389Z,100483.84
2023-01-05T22:27:08.376Z,100495.31
2023-01-05T22:29:35.950Z,100510.88
2023-01-05T22:32:03.523Z,100518.13
2023-01-05T22:34:31.581Z,100511.34
2023-01-05T22:36:58.992Z,100514.47
2023-01-05T22:39:26.542Z,100521.25
2023-01-05T22:41:54.064Z,100529.13
2023-01-05T22:44:21.662Z,100528.97
2023-01-05T22:46:48.960Z,100533.03
2023-01-05T22:49:16.718Z,100537.91
2023-01-05T22:51:46.377Z,100535.03
2023-01-05T22:54:14.437Z,100531.97
2023-01-05T22:56:41.784Z,100536.38
2023-01-05T22:59:09.570Z,100540.69
2023-01-05T23:01:43.085Z,100542.91
2023-01-05T23:04:12.175Z,100546.97
2023-01-05T23:06:39.991Z,100553.16
2023-01-05T23:09:09.482Z,100557.31
2023-01-05T23:11:38.969Z,100553.97
2023-01-05T23:14:08.683Z,100555.81
2023-01-05T23:16:36.644Z,100562.59
2023-01-05T23:19:05.976Z,100564.41
2023-01-05T23:21:33.421Z,100569.41
2023-01-05T23:24:01.103Z,100562.16
2023-01-05T23:26:29.004Z,100560.69
2023-01-05T23:28:56.942Z,100566.84
2023-01-05T23:31:24.620Z,100579.69
2023-01-05T23:33:52.458Z,100578.06
2023-01-05T23:36:21.295Z,100579.38
2023-01-05T23:38:49.113Z,100595.59
2023-01-05T23:41:17.531Z,100589.50
2023-01-05T23:43:46.063Z,100610.69
2023-01-05T23:46:20.418Z,100598.94
2023-01-05T23:48:49.588Z,100609.38
2023-01-05T23:51:17.715Z,100619.06
2023-01-05T23:53:48.213Z,100609.78
2023-01-05T23:56:18.878Z,100628.75
2023-01-05T23:58:46.728Z,100623.56
